sensor_id;sensor_type;location;lat;lon;timestamp;P1;durP1;ratioP1;P2;durP2;ratioP2
76256;SDS011;65074;50.436;8.672;2023-07-02T00:00:40;4.20;;;2.60;;
76256;SDS011;65074;50.436;8.672;2023-07-02T00:03:06;2.53;;;2.33;;
76256;SDS011;65074;50.436;8.672;2023-07-02T00:05:31;3.60;;;2.17;;
76256;SDS011;65074;50.436;8.672;2023-07-02T00:07:56;3.25;;;2.30;;
76256;SDS011;65074;50.436;8.672;2023-07-02T00:10:21;3.17;;;2.20;;
76256;SDS011;65074;50.436;8.672;2023-07-02T00:12:47;3.73;;;2.00;;
76256;SDS011;65074;50.436;8.672;2023-07-02T00:15:12;4.50;;;2.17;;
76256;SDS011;65074;50.436;8.672;2023-07-02T00:17:37;3.13;;;2.17;;
76256;SDS011;65074;50.436;8.672;2023-07-02T00:20:06;3.45;;;2.00;;
76256;SDS011;65074;50.436;8.672;2023-07-02T00:22:39;5.32;;;2.05;;
76256;SDS011;65074;50.436;8.672;2023-07-02T00:25:07;5.30;;;2.58;;
76256;SDS011;65074;50.436;8.672;2023-07-02T00:27:32;2.22;;;2.03;;
76256;SDS011;65074;50.436;8.672;2023-07-02T00:29:57;2.15;;;1.90;;
76256;SDS011;65074;50.436;8.672;2023-07-02T00:32:22;4.13;;;1.90;;
76256;SDS011;65074;50.436;8.672;2023-07-02T00:34:47;3.20;;;2.10;;
76256;SDS011;65074;50.436;8.672;2023-07-02T00:37:13;3.40;;;2.33;;
76256;SDS011;65074;50.436;8.672;2023-07-02T00:39:38;2.07;;;1.87;;
76256;SDS011;65074;50.436;8.672;2023-07-02T00:42:03;2.73;;;1.87;;
76256;SDS011;65074;50.436;8.672;2023-07-02T00:44:29;3.53;;;2.20;;
76256;SDS011;65074;50.436;8.672;2023-07-02T00:46:54;3.20;;;2.30;;
76256;SDS011;65074;50.436;8.672;2023-07-02T00:49:20;2.72;;;2.03;;
76256;SDS011;65074;50.436;8.672;2023-07-02T00:51:45;3.50;;;2.15;;
76256;SDS011;65074;50.436;8.672;2023-07-02T00:54:10;3.00;;;2.10;;
76256;SDS011;65074;50.436;8.672;2023-07-02T00:56:36;2.23;;;2.00;;
76256;SDS011;65074;50.436;8.672;2023-07-02T00:59:01;4.57;;;2.30;;
76256;SDS011;65074;50.436;8.672;2023-07-02T01:01:27;2.07;;;1.80;;
76256;SDS011;65074;50.436;8.672;2023-07-02T01:04:02;2.67;;;2.00;;
76256;SDS011;65074;50.436;8.672;2023-07-02T01:08:56;3.20;;;2.17;;
76256;SDS011;65074;50.436;8.672;2023-07-02T01:11:25;2.70;;;2.00;;
76256;SDS011;65074;50.436;8.672;2023-07-02T01:13:51;4.93;;;2.00;;
76256;SDS011;65074;50.436;8.672;2023-07-02T01:16:18;2.65;;;1.70;;
76256;SDS011;65074;50.436;8.672;2023-07-02T01:18:44;2.83;;;2.40;;
76256;SDS011;65074;50.436;8.672;2023-07-02T01:21:09;2.88;;;2.20;;
76256;SDS011;65074;50.436;8.672;2023-07-02T01:23:35;2.33;;;2.10;;
76256;SDS011;65074;50.436;8.672;2023-07-02T01:26:01;3.70;;;2.15;;
76256;SDS011;65074;50.436;8.672;2023-07-02T01:28:33;2.80;;;2.30;;
76256;SDS011;65074;50.436;8.672;2023-07-02T01:30:59;1.83;;;1.55;;
76256;SDS011;65074;50.436;8.672;2023-07-02T01:33:24;3.80;;;1.90;;
76256;SDS011;65074;50.436;8.672;2023-07-02T01:35:49;3.97;;;2.20;;
76256;SDS011;65074;50.436;8.672;2023-07-02T01:38:15;4.03;;;2.38;;
76256;SDS011;65074;50.436;8.672;2023-07-02T01:40:40;2.30;;;2.10;;
76256;SDS011;65074;50.436;8.672;2023-07-02T01:43:05;3.90;;;2.27;;
76256;SDS011;65074;50.436;8.672;2023-07-02T01:45:30;2.70;;;2.20;;
76256;SDS011;65074;50.436;8.672;2023-07-02T01:47:55;3.13;;;2.40;;
76256;SDS011;65074;50.436;8.672;2023-07-02T01:50:21;3.33;;;2.53;;
76256;SDS011;65074;50.436;8.672;2023-07-02T01:52:46;5.27;;;2.37;;
76256;SDS011;65074;50.436;8.672;2023-07-02T01:55:11;3.70;;;2.53;;
76256;SDS011;65074;50.436;8.672;2023-07-02T01:57:36;2.57;;;2.37;;
76256;SDS011;65074;50.436;8.672;2023-07-02T02:00:02;3.07;;;2.23;;
76256;SDS011;65074;50.436;8.672;2023-07-02T02:02:40;4.45;;;2.78;;
76256;SDS011;65074;50.436;8.672;2023-07-02T02:05:07;4.90;;;2.58;;
76256;SDS011;65074;50.436;8.672;2023-07-02T02:07:33;4.90;;;2.08;;
76256;SDS011;65074;50.436;8.672;2023-07-02T02:10:01;3.03;;;2.47;;
76256;SDS011;65074;50.436;8.672;2023-07-02T02:12:26;4.55;;;2.92;;
76256;SDS011;65074;50.436;8.672;2023-07-02T02:14:53;2.33;;;2.13;;
76256;SDS011;65074;50.436;8.672;2023-07-02T02:17:19;3.97;;;2.47;;
76256;SDS011;65074;50.436;8.672;2023-07-02T02:19:44;2.22;;;2.03;;
76256;SDS011;65074;50.436;8.672;2023-07-02T02:22:09;5.00;;;2.47;;
76256;SDS011;65074;50.436;8.672;2023-07-02T02:24:35;2.90;;;2.42;;
76256;SDS011;65074;50.436;8.672;2023-07-02T02:27:00;3.27;;;2.53;;
76256;SDS011;65074;50.436;8.672;2023-07-02T02:29:25;4.23;;;2.43;;
76256;SDS011;65074;50.436;8.672;2023-07-02T02:31:50;2.83;;;2.53;;
76256;SDS011;65074;50.436;8.672;2023-07-02T02:34:16;6.53;;;2.78;;
76256;SDS011;65074;50.436;8.672;2023-07-02T02:36:41;3.17;;;2.57;;
76256;SDS011;65074;50.436;8.672;2023-07-02T02:39:06;3.70;;;2.70;;
76256;SDS011;65074;50.436;8.672;2023-07-02T02:41:32;2.97;;;2.17;;
76256;SDS011;65074;50.436;8.672;2023-07-02T02:43:58;2.78;;;2.45;;
76256;SDS011;65074;50.436;8.672;2023-07-02T02:46:24;3.60;;;2.72;;
76256;SDS011;65074;50.436;8.672;2023-07-02T02:48:50;3.97;;;2.97;;
76256;SDS011;65074;50.436;8.672;2023-07-02T02:51:17;3.28;;;2.63;;
76256;SDS011;65074;50.436;8.672;2023-07-02T02:53:42;5.82;;;3.00;;
76256;SDS011;65074;50.436;8.672;2023-07-02T02:56:07;4.60;;;3.10;;
76256;SDS011;65074;50.436;8.672;2023-07-02T02:58:33;4.78;;;2.83;;
76256;SDS011;65074;50.436;8.672;2023-07-02T03:00:58;3.78;;;2.58;;
76256;SDS011;65074;50.436;8.672;2023-07-02T03:03:23;5.27;;;2.90;;
76256;SDS011;65074;50.436;8.672;2023-07-02T03:05:49;7.68;;;2.80;;
76256;SDS011;65074;50.436;8.672;2023-07-02T03:08:15;5.22;;;2.90;;
76256;SDS011;65074;50.436;8.672;2023-07-02T03:10:40;5.43;;;3.17;;
76256;SDS011;65074;50.436;8.672;2023-07-02T03:13:05;3.27;;;2.53;;
76256;SDS011;65074;50.436;8.672;2023-07-02T03:15:30;5.63;;;2.73;;
76256;SDS011;65074;50.436;8.672;2023-07-02T03:17:56;6.03;;;2.40;;
76256;SDS011;65074;50.436;8.672;2023-07-02T03:20:21;5.30;;;2.65;;
76256;SDS011;65074;50.436;8.672;2023-07-02T03:22:46;4.68;;;2.92;;
76256;SDS011;65074;50.436;8.672;2023-07-02T03:25:11;3.83;;;2.80;;
76256;SDS011;65074;50.436;8.672;2023-07-02T03:27:37;3.22;;;2.60;;
76256;SDS011;65074;50.436;8.672;2023-07-02T03:30:03;3.90;;;2.70;;
76256;SDS011;65074;50.436;8.672;2023-07-02T03:32:28;4.47;;;2.92;;
76256;SDS011;65074;50.436;8.672;2023-07-02T03:34:54;3.33;;;2.47;;
76256;SDS011;65074;50.436;8.672;2023-07-02T03:37:19;3.37;;;2.53;;
76256;SDS011;65074;50.436;8.672;2023-07-02T03:39:44;3.65;;;2.90;;
76256;SDS011;65074;50.436;8.672;2023-07-02T03:42:09;3.63;;;3.07;;
76256;SDS011;65074;50.436;8.672;2023-07-02T03:44:35;5.73;;;2.50;;
76256;SDS011;65074;50.436;8.672;2023-07-02T03:47:00;4.23;;;2.70;;
76256;SDS011;65074;50.436;8.672;2023-07-02T03:49:25;4.83;;;2.60;;
76256;SDS011;65074;50.436;8.672;2023-07-02T03:51:50;8.10;;;2.47;;
76256;SDS011;65074;50.436;8.672;2023-07-02T03:54:16;4.83;;;2.57;;
76256;SDS011;65074;50.436;8.672;2023-07-02T03:56:41;6.20;;;2.28;;
76256;SDS011;65074;50.436;8.672;2023-07-02T03:59:06;3.10;;;2.43;;
76256;SDS011;65074;50.436;8.672;2023-07-02T04:01:32;2.83;;;2.07;;
76256;SDS011;65074;50.436;8.672;2023-07-02T04:03:57;4.23;;;2.57;;
76256;SDS011;65074;50.436;8.672;2023-07-02T04:06:22;3.50;;;2.07;;
76256;SDS011;65074;50.436;8.672;2023-07-02T04:08:48;4.78;;;2.50;;
76256;SDS011;65074;50.436;8.672;2023-07-02T04:11:13;6.70;;;2.90;;
76256;SDS011;65074;50.436;8.672;2023-07-02T04:13:39;4.60;;;3.20;;
76256;SDS011;65074;50.436;8.672;2023-07-02T04:16:04;3.92;;;2.38;;
76256;SDS011;65074;50.436;8.672;2023-07-02T04:18:30;5.87;;;2.47;;
76256;SDS011;65074;50.436;8.672;2023-07-02T04:20:55;4.70;;;2.37;;
76256;SDS011;65074;50.436;8.672;2023-07-02T04:23:20;6.72;;;2.72;;
76256;SDS011;65074;50.436;8.672;2023-07-02T04:25:46;5.80;;;2.90;;
76256;SDS011;65074;50.436;8.672;2023-07-02T04:28:11;6.87;;;2.57;;
76256;SDS011;65074;50.436;8.672;2023-07-02T04:30:36;5.97;;;2.80;;
76256;SDS011;65074;50.436;8.672;2023-07-02T04:33:01;7.43;;;3.10;;
76256;SDS011;65074;50.436;8.672;2023-07-02T04:35:27;5.60;;;3.13;;
76256;SDS011;65074;50.436;8.672;2023-07-02T04:37:52;4.03;;;2.60;;
76256;SDS011;65074;50.436;8.672;2023-07-02T04:40:17;8.00;;;3.03;;
76256;SDS011;65074;50.436;8.672;2023-07-02T04:42:42;8.07;;;3.13;;
76256;SDS011;65074;50.436;8.672;2023-07-02T04:45:12;12.13;;;3.25;;
76256;SDS011;65074;50.436;8.672;2023-07-02T04:47:38;8.95;;;3.53;;
76256;SDS011;65074;50.436;8.672;2023-07-02T04:50:03;9.57;;;4.32;;
76256;SDS011;65074;50.436;8.672;2023-07-02T04:52:30;6.03;;;3.05;;
76256;SDS011;65074;50.436;8.672;2023-07-02T04:54:55;7.80;;;3.30;;
76256;SDS011;65074;50.436;8.672;2023-07-02T04:57:21;8.30;;;3.25;;
76256;SDS011;65074;50.436;8.672;2023-07-02T04:59:46;7.80;;;3.87;;
76256;SDS011;65074;50.436;8.672;2023-07-02T05:02:12;10.48;;;3.90;;
76256;SDS011;65074;50.436;8.672;2023-07-02T05:04:37;6.43;;;3.93;;
76256;SDS011;65074;50.436;8.672;2023-07-02T05:07:03;5.93;;;3.43;;
76256;SDS011;65074;50.436;8.672;2023-07-02T05:09:29;8.18;;;3.25;;
76256;SDS011;65074;50.436;8.672;2023-07-02T05:11:54;9.57;;;3.70;;
76256;SDS011;65074;50.436;8.672;2023-07-02T05:14:19;9.80;;;3.47;;
76256;SDS011;65074;50.436;8.672;2023-07-02T05:16:45;6.97;;;3.37;;
76256;SDS011;65074;50.436;8.672;2023-07-02T05:19:10;9.60;;;4.67;;
76256;SDS011;65074;50.436;8.672;2023-07-02T05:21:35;6.87;;;4.07;;
76256;SDS011;65074;50.436;8.672;2023-07-02T05:24:00;9.97;;;4.20;;
76256;SDS011;65074;50.436;8.672;2023-07-02T05:26:26;7.93;;;3.80;;
76256;SDS011;65074;50.436;8.672;2023-07-02T05:28:52;8.95;;;3.67;;
76256;SDS011;65074;50.436;8.672;2023-07-02T05:31:17;10.13;;;3.88;;
76256;SDS011;65074;50.436;8.672;2023-07-02T05:33:42;6.97;;;3.87;;
76256;SDS011;65074;50.436;8.672;2023-07-02T05:36:08;8.30;;;3.93;;
76256;SDS011;65074;50.436;8.672;2023-07-02T05:38:33;9.90;;;4.40;;
76256;SDS011;65074;50.436;8.672;2023-07-02T05:40:58;12.33;;;5.23;;
76256;SDS011;65074;50.436;8.672;2023-07-02T05:43:23;9.57;;;4.40;;
76256;SDS011;65074;50.436;8.672;2023-07-02T05:45:50;10.87;;;4.57;;
76256;SDS011;65074;50.436;8.672;2023-07-02T05:48:15;6.78;;;4.20;;
76256;SDS011;65074;50.436;8.672;2023-07-02T05:50:41;8.45;;;4.20;;
76256;SDS011;65074;50.436;8.672;2023-07-02T05:53:06;12.50;;;4.73;;
76256;SDS011;65074;50.436;8.672;2023-07-02T05:55:31;9.07;;;4.53;;
76256;SDS011;65074;50.436;8.672;2023-07-02T05:57:56;10.03;;;4.80;;
76256;SDS011;65074;50.436;8.672;2023-07-02T06:00:26;11.25;;;4.07;;
76256;SDS011;65074;50.436;8.672;2023-07-02T06:02:51;12.03;;;4.77;;
76256;SDS011;65074;50.436;8.672;2023-07-02T06:05:17;10.47;;;4.43;;
76256;SDS011;65074;50.436;8.672;2023-07-02T06:07:42;9.67;;;5.10;;
76256;SDS011;65074;50.436;8.672;2023-07-02T06:10:07;12.60;;;4.80;;
76256;SDS011;65074;50.436;8.672;2023-07-02T06:12:32;10.98;;;5.60;;
76256;SDS011;65074;50.436;8.672;2023-07-02T06:14:58;11.83;;;5.13;;
76256;SDS011;65074;50.436;8.672;2023-07-02T06:17:23;9.77;;;5.37;;
76256;SDS011;65074;50.436;8.672;2023-07-02T06:19:50;14.77;;;5.78;;
76256;SDS011;65074;50.436;8.672;2023-07-02T06:22:15;11.93;;;6.07;;
76256;SDS011;65074;50.436;8.672;2023-07-02T06:24:40;10.07;;;5.67;;
76256;SDS011;65074;50.436;8.672;2023-07-02T06:27:05;14.07;;;5.50;;
76256;SDS011;65074;50.436;8.672;2023-07-02T06:29:30;12.90;;;5.93;;
76256;SDS011;65074;50.436;8.672;2023-07-02T06:31:56;12.20;;;6.07;;
76256;SDS011;65074;50.436;8.672;2023-07-02T06:34:21;10.63;;;5.53;;
76256;SDS011;65074;50.436;8.672;2023-07-02T06:36:47;13.10;;;5.43;;
76256;SDS011;65074;50.436;8.672;2023-07-02T06:39:13;14.95;;;5.85;;
76256;SDS011;65074;50.436;8.672;2023-07-02T06:41:38;15.23;;;5.72;;
76256;SDS011;65074;50.436;8.672;2023-07-02T06:44:03;13.33;;;5.53;;
76256;SDS011;65074;50.436;8.672;2023-07-02T06:46:29;12.85;;;5.25;;
76256;SDS011;65074;50.436;8.672;2023-07-02T06:48:55;10.82;;;5.63;;
76256;SDS011;65074;50.436;8.672;2023-07-02T06:51:20;13.05;;;5.97;;
76256;SDS011;65074;50.436;8.672;2023-07-02T06:53:46;13.90;;;6.43;;
76256;SDS011;65074;50.436;8.672;2023-07-02T06:56:11;16.15;;;7.05;;
76256;SDS011;65074;50.436;8.672;2023-07-02T06:58:37;13.27;;;6.20;;
76256;SDS011;65074;50.436;8.672;2023-07-02T07:01:02;11.87;;;5.97;;
76256;SDS011;65074;50.436;8.672;2023-07-02T07:03:27;13.82;;;6.47;;
76256;SDS011;65074;50.436;8.672;2023-07-02T07:05:53;14.65;;;6.78;;
76256;SDS011;65074;50.436;8.672;2023-07-02T07:08:18;9.70;;;6.13;;
76256;SDS011;65074;50.436;8.672;2023-07-02T07:10:43;12.63;;;7.83;;
76256;SDS011;65074;50.436;8.672;2023-07-02T07:13:10;14.30;;;6.85;;
76256;SDS011;65074;50.436;8.672;2023-07-02T07:15:35;15.45;;;7.15;;
76256;SDS011;65074;50.436;8.672;2023-07-02T07:18:01;15.90;;;6.87;;
76256;SDS011;65074;50.436;8.672;2023-07-02T07:20:26;16.30;;;7.95;;
76256;SDS011;65074;50.436;8.672;2023-07-02T07:22:51;17.40;;;7.30;;
76256;SDS011;65074;50.436;8.672;2023-07-02T07:25:17;13.67;;;7.17;;
76256;SDS011;65074;50.436;8.672;2023-07-02T07:27:42;15.47;;;7.17;;
76256;SDS011;65074;50.436;8.672;2023-07-02T07:30:07;17.03;;;7.73;;
76256;SDS011;65074;50.436;8.672;2023-07-02T07:32:33;14.73;;;7.20;;
76256;SDS011;65074;50.436;8.672;2023-07-02T07:34:58;12.60;;;7.17;;
76256;SDS011;65074;50.436;8.672;2023-07-02T07:37:23;18.90;;;7.00;;
76256;SDS011;65074;50.436;8.672;2023-07-02T07:39:50;12.93;;;6.78;;
76256;SDS011;65074;50.436;8.672;2023-07-02T07:42:15;14.90;;;6.77;;
76256;SDS011;65074;50.436;8.672;2023-07-02T07:44:41;13.93;;;6.20;;
76256;SDS011;65074;50.436;8.672;2023-07-02T07:47:07;14.40;;;7.35;;
76256;SDS011;65074;50.436;8.672;2023-07-02T07:49:32;14.73;;;6.70;;
76256;SDS011;65074;50.436;8.672;2023-07-02T07:51:57;17.10;;;8.33;;
76256;SDS011;65074;50.436;8.672;2023-07-02T07:54:22;11.40;;;6.40;;
76256;SDS011;65074;50.436;8.672;2023-07-02T07:56:49;10.70;;;5.22;;
76256;SDS011;65074;50.436;8.672;2023-07-02T07:59:15;15.43;;;7.47;;
76256;SDS011;65074;50.436;8.672;2023-07-02T08:01:40;12.05;;;7.00;;
76256;SDS011;65074;50.436;8.672;2023-07-02T08:04:05;17.42;;;8.13;;
76256;SDS011;65074;50.436;8.672;2023-07-02T08:06:30;14.33;;;7.23;;
76256;SDS011;65074;50.436;8.672;2023-07-02T08:08:56;14.43;;;6.53;;
76256;SDS011;65074;50.436;8.672;2023-07-02T08:11:22;13.37;;;7.20;;
76256;SDS011;65074;50.436;8.672;2023-07-02T08:13:47;14.07;;;7.13;;
76256;SDS011;65074;50.436;8.672;2023-07-02T08:16:12;11.23;;;5.93;;
76256;SDS011;65074;50.436;8.672;2023-07-02T08:18:38;13.63;;;6.47;;
76256;SDS011;65074;50.436;8.672;2023-07-02T08:21:03;14.63;;;7.20;;
76256;SDS011;65074;50.436;8.672;2023-07-02T08:23:31;14.38;;;7.63;;
76256;SDS011;65074;50.436;8.672;2023-07-02T08:25:56;12.63;;;6.45;;
76256;SDS011;65074;50.436;8.672;2023-07-02T08:28:21;17.43;;;7.07;;
76256;SDS011;65074;50.436;8.672;2023-07-02T08:30:47;14.63;;;6.93;;
76256;SDS011;65074;50.436;8.672;2023-07-02T08:33:12;12.00;;;6.67;;
76256;SDS011;65074;50.436;8.672;2023-07-02T08:35:37;12.93;;;5.97;;
76256;SDS011;65074;50.436;8.672;2023-07-02T08:38:02;17.67;;;6.77;;
76256;SDS011;65074;50.436;8.672;2023-07-02T08:40:28;10.77;;;6.03;;
76256;SDS011;65074;50.436;8.672;2023-07-02T08:42:53;16.85;;;7.70;;
76256;SDS011;65074;50.436;8.672;2023-07-02T08:45:20;15.00;;;7.65;;
76256;SDS011;65074;50.436;8.672;2023-07-02T08:47:47;13.38;;;6.55;;
76256;SDS011;65074;50.436;8.672;2023-07-02T08:50:13;14.30;;;6.75;;
76256;SDS011;65074;50.436;8.672;2023-07-02T08:52:39;12.02;;;6.00;;
76256;SDS011;65074;50.436;8.672;2023-07-02T08:55:04;10.52;;;6.15;;
76256;SDS011;65074;50.436;8.672;2023-07-02T08:57:30;14.23;;;7.07;;
76256;SDS011;65074;50.436;8.672;2023-07-02T08:59:55;7.63;;;4.93;;
76256;SDS011;65074;50.436;8.672;2023-07-02T09:02:31;14.37;;;6.70;;
76256;SDS011;65074;50.436;8.672;2023-07-02T09:05:00;14.95;;;6.68;;
76256;SDS011;65074;50.436;8.672;2023-07-02T09:07:25;9.88;;;5.70;;
76256;SDS011;65074;50.436;8.672;2023-07-02T09:09:50;12.23;;;6.20;;
76256;SDS011;65074;50.436;8.672;2023-07-02T09:12:25;12.00;;;5.93;;
76256;SDS011;65074;50.436;8.672;2023-07-02T09:14:57;11.95;;;6.00;;
76256;SDS011;65074;50.436;8.672;2023-07-02T09:17:29;9.82;;;5.05;;
76256;SDS011;65074;50.436;8.672;2023-07-02T09:19:55;9.70;;;4.80;;
76256;SDS011;65074;50.436;8.672;2023-07-02T09:22:20;9.13;;;4.45;;
76256;SDS011;65074;50.436;8.672;2023-07-02T09:24:52;11.50;;;5.80;;
76256;SDS011;65074;50.436;8.672;2023-07-02T09:27:19;12.13;;;6.00;;
76256;SDS011;65074;50.436;8.672;2023-07-02T09:29:49;12.73;;;5.93;;
76256;SDS011;65074;50.436;8.672;2023-07-02T09:32:23;13.93;;;6.32;;
76256;SDS011;65074;50.436;8.672;2023-07-02T09:34:48;9.75;;;5.97;;
76256;SDS011;65074;50.436;8.672;2023-07-02T09:37:13;8.77;;;4.67;;
76256;SDS011;65074;50.436;8.672;2023-07-02T09:39:39;10.33;;;5.77;;
76256;SDS011;65074;50.436;8.672;2023-07-02T09:42:05;10.77;;;5.60;;
76256;SDS011;65074;50.436;8.672;2023-07-02T09:44:31;10.80;;;5.75;;
76256;SDS011;65074;50.436;8.672;2023-07-02T09:47:03;10.68;;;6.05;;
76256;SDS011;65074;50.436;8.672;2023-07-02T09:49:31;10.90;;;5.28;;
76256;SDS011;65074;50.436;8.672;2023-07-02T09:51:57;10.55;;;5.47;;
76256;SDS011;65074;50.436;8.672;2023-07-02T09:54:23;9.95;;;5.60;;
76256;SDS011;65074;50.436;8.672;2023-07-02T09:56:49;9.90;;;5.60;;
76256;SDS011;65074;50.436;8.672;2023-07-02T09:59:14;13.47;;;5.67;;
76256;SDS011;65074;50.436;8.672;2023-07-02T10:01:39;9.63;;;6.45;;
76256;SDS011;65074;50.436;8.672;2023-07-02T10:04:12;11.63;;;5.73;;
76256;SDS011;65074;50.436;8.672;2023-07-02T10:06:50;7.25;;;4.75;;
76256;SDS011;65074;50.436;8.672;2023-07-02T10:09:16;10.07;;;5.60;;
76256;SDS011;65074;50.436;8.672;2023-07-02T10:11:42;9.95;;;5.93;;
76256;SDS011;65074;50.436;8.672;2023-07-02T10:14:07;10.13;;;5.78;;
76256;SDS011;65074;50.436;8.672;2023-07-02T10:16:32;9.57;;;5.90;;
76256;SDS011;65074;50.436;8.672;2023-07-02T10:19:10;13.50;;;7.45;;
76256;SDS011;65074;50.436;8.672;2023-07-02T10:21:35;14.18;;;5.63;;
76256;SDS011;65074;50.436;8.672;2023-07-02T10:24:14;10.60;;;5.87;;
76256;SDS011;65074;50.436;8.672;2023-07-02T10:26:56;11.25;;;6.25;;
76256;SDS011;65074;50.436;8.672;2023-07-02T10:29:25;9.85;;;6.40;;
76256;SDS011;65074;50.436;8.672;2023-07-02T10:31:50;12.43;;;5.88;;
76256;SDS011;65074;50.436;8.672;2023-07-02T10:34:16;11.98;;;6.35;;
76256;SDS011;65074;50.436;8.672;2023-07-02T10:36:41;12.27;;;6.40;;
76256;SDS011;65074;50.436;8.672;2023-07-02T10:39:06;11.80;;;6.40;;
76256;SDS011;65074;50.436;8.672;2023-07-02T10:41:33;12.65;;;6.22;;
76256;SDS011;65074;50.436;8.672;2023-07-02T10:44:06;11.40;;;6.63;;
76256;SDS011;65074;50.436;8.672;2023-07-02T10:46:31;11.73;;;6.22;;
76256;SDS011;65074;50.436;8.672;2023-07-02T10:48:57;13.03;;;6.83;;
76256;SDS011;65074;50.436;8.672;2023-07-02T10:51:56;12.20;;;6.75;;
76256;SDS011;65074;50.436;8.672;2023-07-02T10:57:10;11.00;;;6.63;;
76256;SDS011;65074;50.436;8.672;2023-07-02T10:59:39;11.88;;;6.25;;
76256;SDS011;65074;50.436;8.672;2023-07-02T11:02:14;11.30;;;5.65;;
76256;SDS011;65074;50.436;8.672;2023-07-02T11:10:22;11.27;;;5.85;;
76256;SDS011;65074;50.436;8.672;2023-07-02T11:12:48;10.18;;;5.65;;
76256;SDS011;65074;50.436;8.672;2023-07-02T11:15:14;13.38;;;6.78;;
76256;SDS011;65074;50.436;8.672;2023-07-02T11:17:39;13.27;;;6.55;;
76256;SDS011;65074;50.436;8.672;2023-07-02T11:20:11;11.52;;;6.20;;
76256;SDS011;65074;50.436;8.672;2023-07-02T11:25:12;11.30;;;5.80;;
76256;SDS011;65074;50.436;8.672;2023-07-02T11:27:38;12.48;;;5.97;;
76256;SDS011;65074;50.436;8.672;2023-07-02T11:30:03;11.20;;;6.20;;
76256;SDS011;65074;50.436;8.672;2023-07-02T11:32:29;9.40;;;5.45;;
76256;SDS011;65074;50.436;8.672;2023-07-02T11:34:54;14.60;;;6.33;;
76256;SDS011;65074;50.436;8.672;2023-07-02T11:37:20;12.55;;;6.15;;
76256;SDS011;65074;50.436;8.672;2023-07-02T11:39:45;10.67;;;5.00;;
76256;SDS011;65074;50.436;8.672;2023-07-02T11:42:10;11.63;;;5.67;;
76256;SDS011;65074;50.436;8.672;2023-07-02T11:44:35;11.90;;;6.00;;
76256;SDS011;65074;50.436;8.672;2023-07-02T11:47:00;11.33;;;5.87;;
76256;SDS011;65074;50.436;8.672;2023-07-02T11:49:26;9.57;;;5.07;;
76256;SDS011;65074;50.436;8.672;2023-07-02T11:51:51;9.10;;;4.80;;
76256;SDS011;65074;50.436;8.672;2023-07-02T11:54:16;10.63;;;5.73;;
76256;SDS011;65074;50.436;8.672;2023-07-02T11:56:43;11.40;;;5.50;;
76256;SDS011;65074;50.436;8.672;2023-07-02T11:59:10;8.40;;;5.43;;
76256;SDS011;65074;50.436;8.672;2023-07-02T12:01:35;22.85;;;6.10;;
76256;SDS011;65074;50.436;8.672;2023-07-02T12:04:00;10.80;;;6.27;;
76256;SDS011;65074;50.436;8.672;2023-07-02T12:06:26;10.10;;;5.37;;
76256;SDS011;65074;50.436;8.672;2023-07-02T12:08:51;9.90;;;5.10;;
76256;SDS011;65074;50.436;8.672;2023-07-02T12:11:16;12.73;;;5.70;;
76256;SDS011;65074;50.436;8.672;2023-07-02T12:13:41;11.23;;;6.05;;
76256;SDS011;65074;50.436;8.672;2023-07-02T12:16:07;12.63;;;5.77;;
76256;SDS011;65074;50.436;8.672;2023-07-02T12:18:32;9.32;;;5.15;;
76256;SDS011;65074;50.436;8.672;2023-07-02T12:20:57;9.37;;;5.83;;
76256;SDS011;65074;50.436;8.672;2023-07-02T12:23:22;10.07;;;5.67;;
76256;SDS011;65074;50.436;8.672;2023-07-02T12:25:48;9.07;;;5.75;;
76256;SDS011;65074;50.436;8.672;2023-07-02T12:28:14;9.90;;;5.70;;
76256;SDS011;65074;50.436;8.672;2023-07-02T12:30:39;9.10;;;5.10;;
76256;SDS011;65074;50.436;8.672;2023-07-02T12:33:04;7.80;;;4.90;;
76256;SDS011;65074;50.436;8.672;2023-07-02T12:35:30;10.90;;;5.80;;
76256;SDS011;65074;50.436;8.672;2023-07-02T12:37:55;12.23;;;5.83;;
76256;SDS011;65074;50.436;8.672;2023-07-02T12:40:20;9.80;;;5.93;;
76256;SDS011;65074;50.436;8.672;2023-07-02T12:42:46;12.45;;;6.40;;
76256;SDS011;65074;50.436;8.672;2023-07-02T12:45:12;11.73;;;6.50;;
76256;SDS011;65074;50.436;8.672;2023-07-02T12:47:38;10.30;;;6.28;;
76256;SDS011;65074;50.436;8.672;2023-07-02T12:50:04;8.23;;;5.85;;
76256;SDS011;65074;50.436;8.672;2023-07-02T12:52:29;9.05;;;5.85;;
76256;SDS011;65074;50.436;8.672;2023-07-02T12:54:54;8.40;;;5.13;;
76256;SDS011;65074;50.436;8.672;2023-07-02T12:57:20;8.73;;;5.40;;
76256;SDS011;65074;50.436;8.672;2023-07-02T12:59:45;9.07;;;5.70;;
76256;SDS011;65074;50.436;8.672;2023-07-02T13:02:10;9.73;;;5.87;;
76256;SDS011;65074;50.436;8.672;2023-07-02T13:04:36;9.15;;;5.65;;
76256;SDS011;65074;50.436;8.672;2023-07-02T13:07:01;12.30;;;7.07;;
76256;SDS011;65074;50.436;8.672;2023-07-02T13:09:26;12.05;;;6.45;;
76256;SDS011;65074;50.436;8.672;2023-07-02T13:11:52;12.13;;;5.93;;
76256;SDS011;65074;50.436;8.672;2023-07-02T13:14:17;11.73;;;5.57;;
76256;SDS011;65074;50.436;8.672;2023-07-02T13:16:42;10.68;;;5.30;;
76256;SDS011;65074;50.436;8.672;2023-07-02T13:19:07;11.53;;;5.80;;
76256;SDS011;65074;50.436;8.672;2023-07-02T13:21:33;9.20;;;5.87;;
76256;SDS011;65074;50.436;8.672;2023-07-02T13:23:58;11.30;;;6.10;;
76256;SDS011;65074;50.436;8.672;2023-07-02T13:26:23;11.83;;;6.47;;
76256;SDS011;65074;50.436;8.672;2023-07-02T13:28:48;11.45;;;6.30;;
76256;SDS011;65074;50.436;8.672;2023-07-02T13:31:14;15.80;;;6.85;;
76256;SDS011;65074;50.436;8.672;2023-07-02T13:33:39;12.00;;;6.00;;
76256;SDS011;65074;50.436;8.672;2023-07-02T13:36:05;10.47;;;5.97;;
76256;SDS011;65074;50.436;8.672;2023-07-02T13:38:30;10.23;;;5.25;;
76256;SDS011;65074;50.436;8.672;2023-07-02T13:40:56;12.38;;;6.32;;
76256;SDS011;65074;50.436;8.672;2023-07-02T13:43:21;8.90;;;5.47;;
76256;SDS011;65074;50.436;8.672;2023-07-02T13:45:46;11.03;;;6.03;;
76256;SDS011;65074;50.436;8.672;2023-07-02T13:48:12;11.77;;;6.03;;
76256;SDS011;65074;50.436;8.672;2023-07-02T13:50:37;10.97;;;5.87;;
76256;SDS011;65074;50.436;8.672;2023-07-02T13:53:02;12.03;;;6.33;;
76256;SDS011;65074;50.436;8.672;2023-07-02T13:55:27;10.43;;;5.70;;
76256;SDS011;65074;50.436;8.672;2023-07-02T13:57:54;10.55;;;5.82;;
76256;SDS011;65074;50.436;8.672;2023-07-02T14:00:20;13.63;;;7.28;;
76256;SDS011;65074;50.436;8.672;2023-07-02T14:02:46;11.77;;;6.60;;
76256;SDS011;65074;50.436;8.672;2023-07-02T14:05:11;13.40;;;6.20;;
76256;SDS011;65074;50.436;8.672;2023-07-02T14:07:36;13.00;;;6.33;;
76256;SDS011;65074;50.436;8.672;2023-07-02T14:10:02;12.57;;;6.40;;
76256;SDS011;65074;50.436;8.672;2023-07-02T14:12:27;11.25;;;6.38;;
76256;SDS011;65074;50.436;8.672;2023-07-02T14:14:52;11.37;;;5.77;;
76256;SDS011;65074;50.436;8.672;2023-07-02T14:17:17;11.13;;;5.57;;
76256;SDS011;65074;50.436;8.672;2023-07-02T14:19:43;11.57;;;5.87;;
76256;SDS011;65074;50.436;8.672;2023-07-02T14:22:09;14.75;;;7.85;;
76256;SDS011;65074;50.436;8.672;2023-07-02T14:24:34;12.47;;;6.20;;
76256;SDS011;65074;50.436;8.672;2023-07-02T14:27:03;10.88;;;6.32;;
76256;SDS011;65074;50.436;8.672;2023-07-02T14:29:29;10.82;;;5.97;;
76256;SDS011;65074;50.436;8.672;2023-07-02T14:31:54;10.93;;;6.47;;
76256;SDS011;65074;50.436;8.672;2023-07-02T14:34:19;10.03;;;5.30;;
76256;SDS011;65074;50.436;8.672;2023-07-02T14:36:44;11.87;;;6.10;;
76256;SDS011;65074;50.436;8.672;2023-07-02T14:39:10;16.33;;;6.77;;
76256;SDS011;65074;50.436;8.672;2023-07-02T14:41:35;9.43;;;5.30;;
76256;SDS011;65074;50.436;8.672;2023-07-02T14:44:01;12.27;;;6.33;;
76256;SDS011;65074;50.436;8.672;2023-07-02T14:46:27;13.30;;;6.82;;